Time;durP1;ratioP1;P1;durP2;ratioP2;P2;SDS_P1;SDS_P2;PMS_P1;PMS_P2;Temp;Humidity;BMP_temperature;BMP_pressure;BME280_temperature;BME280_humidity;BME280_pressure;Samples;Min_cycle;Max_cycle;Signal;HPM_P1;HPM_P2
2023/06/28 00:01:49;;;;;;;4.18;2.80;;;;;;;24.45;49.26;98395.97;5033632;28;20048;-76
2023/06/28 00:04:14;;;;;;;8.75;2.78;;;;;;;24.47;49.38;98411.78;5050669;28;20025;-76
2023/06/28 00:06:40;;;;;;;7.00;2.70;;;;;;;24.42;49.21;98404.41;5050076;28;20465;-76
2023/06/28 00:09:05;;;;;;;5.22;2.88;;;;;;;24.46;48.91;98404.78;5050180;28;20131;-76
2023/06/28 00:11:31;;;;;;;5.07;2.90;;;;;;;24.40;48.95;98401.16;5050327;28;20472;-76
2023/06/28 00:13:56;;;;;;;4.20;3.00;;;;;;;24.33;48.99;98395.84;5051260;28;20021;-76
2023/06/28 00:16:22;;;;;;;5.13;3.20;;;;;;;24.32;49.05;98394.22;5030826;28;20546;-77
2023/06/28 00:18:47;;;;;;;4.20;3.00;;;;;;;24.31;49.17;98400.56;5043787;28;20036;-77
2023/06/28 00:21:13;;;;;;;5.10;3.20;;;;;;;24.30;48.83;98393.59;5028471;28;20122;-77
2023/06/28 00:23:39;;;;;;;3.50;2.80;;;;;;;24.32;48.92;98394.22;5025827;28;20029;-76
2023/06/28 00:26:05;;;;;;;4.28;2.50;;;;;;;24.28;49.00;98394.84;5043407;28;20381;-76
2023/06/28 00:28:30;;;;;;;6.10;2.97;;;;;;;24.21;49.07;98400.22;5011178;28;20097;-76
2023/06/28 00:30:56;;;;;;;4.00;2.90;;;;;;;24.17;49.22;98399.81;5043544;28;20472;-76
2023/06/28 00:33:21;;;;;;;4.53;2.50;;;;;;;24.07;49.69;98388.81;5025775;28;20044;-78
2023/06/28 00:35:47;;;;;;;5.05;2.75;;;;;;;24.05;49.45;98387.38;5042576;28;20032;-78
2023/06/28 00:38:13;;;;;;;4.32;2.85;;;;;;;24.00;49.46;98396.84;5036303;28;20037;-78
2023/06/28 00:40:38;;;;;;;7.03;3.08;;;;;;;23.92;49.39;98381.06;5036818;28;20051;-78
2023/06/28 00:43:04;;;;;;;3.22;2.55;;;;;;;23.93;49.80;98382.72;5053298;28;20029;-78
2023/06/28 00:45:29;;;;;;;6.78;3.00;;;;;;;23.89;49.75;98389.50;5054371;28;20094;-78
2023/06/28 00:47:55;;;;;;;5.90;2.70;;;;;;;23.82;49.67;98384.16;5036601;28;20404;-78
2023/06/28 00:50:20;;;;;;;4.03;2.92;;;;;;;23.77;49.75;98388.50;5020848;28;20029;-78
2023/06/28 00:52:46;;;;;;;3.70;2.75;;;;;;;23.77;49.66;98388.50;5020325;28;20481;-78
2023/06/28 00:55:11;;;;;;;6.32;2.80;;;;;;;23.74;49.61;98383.59;5053108;28;20036;-78
2023/06/28 00:57:37;;;;;;;5.63;2.90;;;;;;;23.74;49.29;98383.59;5054394;28;20531;-78
2023/06/28 01:00:08;;;;;;;5.82;2.65;;;;;;;23.72;49.35;98397.13;5053451;28;20120;-78
2023/06/28 01:02:33;;;;;;;9.23;3.65;;;;;;;23.68;49.53;98390.56;5053204;28;20036;-78
2023/06/28 01:04:59;;;;;;;3.35;2.90;;;;;;;23.63;49.43;98387.72;5036498;28;20060;-78
2023/06/28 01:07:30;;;;;;;3.90;2.75;;;;;;;23.62;49.23;98383.41;5036317;28;20385;-78
2023/06/28 01:09:58;;;;;;;4.00;2.88;;;;;;;23.64;49.30;98386.69;5020396;28;20459;-78
2023/06/28 01:12:27;;;;;;;3.72;2.60;;;;;;;23.61;49.02;98384.44;5036817;28;20037;-78
2023/06/28 01:14:52;;;;;;;4.32;2.90;;;;;;;23.56;49.10;98374.44;5052804;28;20025;-78
2023/06/28 01:17:19;;;;;;;3.40;2.50;;;;;;;23.54;48.77;98379.13;5035821;28;20476;-78
2023/06/28 01:19:45;;;;;;;7.50;2.97;;;;;;;23.46;48.72;98377.50;5036581;28;20563;-78
2023/06/28 01:22:12;;;;;;;5.10;2.72;;;;;;;23.46;48.91;98385.50;5019283;28;20029;-78
2023/06/28 01:24:38;;;;;;;4.05;3.00;;;;;;;23.43;48.71;98391.25;5036052;28;20025;-78
2023/06/28 01:27:04;;;;;;;5.78;2.92;;;;;;;23.38;48.68;98383.06;5051756;28;20037;-78
2023/06/28 01:29:29;;;;;;;5.00;2.60;;;;;;;23.40;49.02;98372.22;5035832;28;20053;-78
2023/06/28 01:31:55;;;;;;;3.88;2.83;;;;;;;23.40;48.51;98382.88;5035714;28;20483;-78
2023/06/28 01:34:22;;;;;;;5.60;3.00;;;;;;;23.44;48.84;98378.78;5035523;28;20063;-78
2023/06/28 01:36:48;;;;;;;6.18;2.50;;;;;;;23.43;48.48;98385.91;5052273;28;20025;-78
2023/06/28 01:39:17;;;;;;;4.18;2.60;;;;;;;23.47;48.28;98381.81;5035766;28;20032;-78
2023/06/28 01:41:43;;;;;;;4.72;2.60;;;;;;;23.49;48.53;98381.63;5035533;28;20546;-78
2023/06/28 01:44:09;;;;;;;2.92;2.17;;;;;;;23.54;48.39;98378.31;5035421;28;20040;-78
2023/06/28 01:46:34;;;;;;;6.10;2.95;;;;;;;23.51;48.37;98387.53;5018541;28;20032;-78
2023/06/28 01:49:00;;;;;;;3.92;2.60;;;;;;;23.43;48.33;98387.78;5035707;28;20044;-78
2023/06/28 01:51:26;;;;;;;4.40;2.65;;;;;;;23.39;48.62;98383.88;5035616;28;20025;-78
2023/06/28 01:53:51;;;;;;;4.88;2.72;;;;;;;23.33;48.93;98387.41;5034539;28;20037;-77
2023/06/28 01:56:17;;;;;;;4.65;2.65;;;;;;;23.28;48.61;98393.34;5018870;28;20045;-78
2023/06/28 01:58:42;;;;;;;4.43;2.42;;;;;;;23.28;48.40;98393.34;5035068;28;20123;-79
2023/06/28 02:01:08;;;;;;;5.18;2.90;;;;;;;23.22;48.35;98397.66;5035115;28;20029;-78
2023/06/28 02:03:33;;;;;;;3.33;2.55;;;;;;;23.20;47.95;98393.53;5052108;28;20064;-78
2023/06/28 02:05:59;;;;;;;4.07;2.40;;;;;;;23.18;48.20;98404.41;5052905;28;20151;-78
2023/06/28 02:08:24;;;;;;;7.07;2.85;;;;;;;23.19;48.51;98408.72;5051827;28;20029;-78
2023/06/28 02:10:50;;;;;;;4.07;2.45;;;;;;;23.14;48.44;98397.06;5051622;28;20178;-78
2023/06/28 02:13:15;;;;;;;6.35;2.60;;;;;;;23.08;48.59;98396.84;5051393;28;20385;-75
2023/06/28 02:15:41;;;;;;;3.45;2.28;;;;;;;23.10;48.91;98399.28;5034615;28;20498;-75
2023/06/28 02:18:07;;;;;;;4.38;2.95;;;;;;;23.17;48.91;98397.47;5034402;28;20123;-78
2023/06/28 02:20:33;;;;;;;3.97;2.80;;;;;;;23.14;48.72;98397.06;5052879;28;20059;-78
2023/06/28 02:22:58;;;;;;;7.05;2.97;;;;;;;23.16;48.68;98398.47;5051578;28;20082;-79
2023/06/28 02:25:23;;;;;;;4.32;2.60;;;;;;;23.19;48.60;98398.06;5034620;28;20031;-78
2023/06/28 02:27:49;;;;;;;4.55;2.80;;;;;;;23.06;48.74;98385.56;5052733;28;20064;-78
2023/06/28 02:30:14;;;;;;;5.60;2.70;;;;;;;23.10;48.89;98393.97;5034472;28;20044;-79
2023/06/28 02:32:40;;;;;;;4.43;2.63;;;;;;;23.11;49.07;98401.75;5051123;28;20040;-78
2023/06/28 02:35:06;;;;;;;5.70;3.05;;;;;;;23.11;48.82;98391.09;5050912;28;20029;-78
2023/06/28 02:37:31;;;;;;;4.82;2.63;;;;;;;23.16;49.33;98395.00;5050990;28;20101;-79
2023/06/28 02:39:57;;;;;;;4.47;2.50;;;;;;;23.10;48.96;98385.97;5034323;28;20080;-78
2023/06/28 02:42:22;;;;;;;5.43;2.78;;;;;;;23.17;48.94;98389.47;5052113;28;20499;-78
2023/06/28 02:44:48;;;;;;;4.05;2.67;;;;;;;23.20;49.16;98399.72;5050827;28;20489;-78
2023/06/28 02:47:13;;;;;;;5.80;2.80;;;;;;;23.10;49.26;98389.47;5052382;28;20090;-78
2023/06/28 02:49:39;;;;;;;4.55;2.80;;;;;;;23.09;48.81;98395.81;5034165;28;20044;-79
2023/06/28 02:52:05;;;;;;;4.50;2.55;;;;;;;23.11;48.87;98396.44;5034041;28;20396;-78
2023/06/28 02:54:30;;;;;;;3.97;2.65;;;;;;;23.19;48.81;98399.91;5050632;28;20090;-79
2023/06/28 02:56:55;;;;;;;4.57;2.70;;;;;;;23.16;48.77;98392.34;5052063;28;20056;-78
2023/06/28 02:59:21;;;;;;;4.80;3.20;;;;;;;23.20;48.74;98397.03;5017751;28;20476;-78
2023/06/28 03:01:46;;;;;;;4.63;2.55;;;;;;;23.23;48.78;98385.97;5050733;28;20045;-78
2023/06/28 03:04:12;;;;;;;4.00;2.85;;;;;;;23.36;48.63;98394.97;5017622;28;20044;-78
2023/06/28 03:06:38;;;;;;;6.47;2.92;;;;;;;23.47;48.33;98395.16;5017804;28;20137;-78
2023/06/28 03:09:04;;;;;;;7.65;3.08;;;;;;;23.53;48.47;98396.16;5034587;28;20476;-79
2023/06/28 03:11:29;;;;;;;3.88;2.60;;;;;;;23.56;48.59;98389.59;5017506;28;20037;-78
2023/06/28 03:13:55;;;;;;;4.18;2.65;;;;;;;23.64;48.43;98394.66;5017604;28;20129;-78
2023/06/28 03:16:21;;;;;;;6.15;2.72;;;;;;;23.73;47.90;98398.75;5050361;28;20488;-78
2023/06/28 03:18:47;;;;;;;4.07;2.78;;;;;;;24.03;47.08;98392.91;5034279;28;20039;-78
2023/06/28 03:21:12;;;;;;;8.65;2.90;;;;;;;24.02;47.50;98389.44;5017525;28;20041;-75
2023/06/28 03:23:38;;;;;;;5.53;2.72;;;;;;;24.31;46.92;98394.44;5050765;28;20481;-79
2023/06/28 03:26:03;;;;;;;4.75;3.05;;;;;;;24.77;45.64;98387.16;5050110;28;20036;-78
2023/06/28 03:28:29;;;;;;;5.50;2.80;;;;;;;25.22;44.90;98394.97;5051617;28;20057;-79
2023/06/28 03:30:54;;;;;;;4.43;2.60;;;;;;;25.53;44.01;98401.28;5034089;28;20048;-78
2023/06/28 03:33:20;;;;;;;9.18;3.00;;;;;;;25.64;43.59;98400.53;5050280;28;20029;-79
2023/06/28 03:35:45;;;;;;;4.95;2.75;;;;;;;25.35;43.95;98400.22;5033035;28;20037;-73
2023/06/28 03:38:11;;;;;;;12.75;2.92;;;;;;;25.19;44.60;98393.56;5051529;28;20106;-77
2023/06/28 03:40:36;;;;;;;30.55;3.17;;;;;;;25.57;45.30;98400.63;5050287;28;20056;-75
2023/06/28 03:43:02;;;;;;;22.98;2.97;;;;;;;25.84;45.12;98397.63;5050230;28;20040;-74
2023/06/28 03:45:29;;;;;;;8.27;2.63;;;;;;;26.23;43.91;98402.72;5049919;28;20029;-74
2023/06/28 03:47:54;;;;;;;6.20;2.60;;;;;;;26.20;43.90;98395.16;5050578;28;20078;-76
2023/06/28 03:50:20;;;;;;;7.40;2.70;;;;;;;26.23;44.15;98402.72;5020463;28;20033;-74
2023/06/28 03:52:45;;;;;;;4.63;2.90;;;;;;;26.21;43.99;98389.56;5054047;28;20121;-72
2023/06/28 03:55:11;;;;;;;10.45;2.80;;;;;;;26.21;43.86;98397.59;5020694;28;20044;-72
2023/06/28 03:57:36;;;;;;;11.38;2.65;;;;;;;26.21;43.97;98400.28;5054184;28;20035;-74
2023/06/28 04:00:04;;;;;;;6.78;2.70;;;;;;;26.10;44.99;98409.06;5055276;28;20025;-71
2023/06/28 04:02:29;;;;;;;8.00;2.80;;;;;;;26.08;44.76;98403.94;5037350;28;20464;-71
2023/06/28 04:04:55;;;;;;;6.05;3.17;;;;;;;26.06;44.43;98406.03;5037538;28;20044;-71
2023/06/28 04:07:24;;;;;;;4.80;2.72;;;;;;;26.07;45.02;98409.50;5053927;28;20045;-80
2023/06/28 04:09:50;;;;;;;6.53;2.97;;;;;;;26.02;45.29;98414.72;5021468;28;20523;-75
2023/06/28 04:12:16;;;;;;;6.60;3.25;;;;;;;25.83;45.27;98402.16;5054898;28;20029;-74
2023/06/28 04:14:41;;;;;;;5.15;3.35;;;;;;;25.60;45.50;98408.19;5053853;28;20103;-77
2023/06/28 04:17:07;;;;;;;4.22;3.00;;;;;;;25.54;45.55;98408.25;5020597;28;20029;-73
2023/06/28 04:19:33;;;;;;;8.73;3.13;;;;;;;25.62;46.13;98408.78;5054315;28;20056;-75
2023/06/28 04:21:59;;;;;;;8.55;3.53;;;;;;;26.85;44.32;98402.44;5036884;28;20488;-79
2023/06/28 04:24:24;;;;;;;9.63;3.33;;;;;;;28.09;41.67;98395.25;5052498;28;20063;-78
2023/06/28 04:26:50;;;;;;;7.50;2.90;;;;;;;29.20;39.38;98399.28;5054303;28;20033;-80
2023/06/28 04:29:15;;;;;;;7.65;2.60;;;;;;;30.43;37.06;98392.72;5054413;28;20462;-79
2023/06/28 04:31:41;;;;;;;3.72;2.60;;;;;;;31.51;34.96;98398.91;5037005;28;20056;-77
2023/06/28 04:34:07;;;;;;;4.25;2.60;;;;;;;32.45;33.57;98396.28;5054675;28;20443;-80
2023/06/28 04:36:32;;;;;;;5.70;2.63;;;;;;;33.36;32.04;98401.91;5036828;28;20029;-78
2023/06/28 04:38:58;;;;;;;7.18;2.47;;;;;;;34.21;31.22;98399.44;5053796;28;20056;-79
2023/06/28 04:41:27;;;;;;;6.50;2.60;;;;;;;35.00;29.81;98393.16;5054944;28;20029;-83
2023/06/28 04:43:56;;;;;;;6.72;2.40;;;;;;;35.74;28.70;98395.63;5053566;28;20053;-79
2023/06/28 04:46:28;;;;;;;5.85;2.45;;;;;;;36.48;27.67;98401.41;5022874;28;20116;-80
2023/06/28 04:48:53;;;;;;;7.25;2.03;;;;;;;37.17;27.06;98391.88;5054777;28;20033;-81
2023/06/28 04:51:19;;;;;;;4.13;2.20;;;;;;;37.79;26.06;98380.59;5036968;28;20394;-81
2023/06/28 04:53:46;;;;;;;4.22;2.15;;;;;;;38.32;25.55;98388.16;5020213;28;20396;-81
2023/06/28 04:56:11;;;;;;;5.03;2.30;;;;;;;38.89;24.95;98389.53;5054787;28;20039;-82
2023/06/28 04:58:37;;;;;;;7.97;2.13;;;;;;;39.45;24.20;98393.47;5037234;28;20116;-82
2023/06/28 05:01:05;;;;;;;3.67;2.10;;;;;;;40.03;23.39;98398.13;5037052;28;20045;-83
2023/06/28 05:03:31;;;;;;;6.63;2.00;;;;;;;40.37;23.28;98405.53;5037216;28;20476;-82
2023/06/28 05:05:56;;;;;;;4.75;1.90;;;;;;;40.73;22.76;98407.13;5054384;28;20025;-80
2023/06/28 05:08:22;;;;;;;6.05;2.10;;;;;;;41.22;22.58;98404.91;5036389;28;20032;-81
2023/06/28 05:10:47;;;;;;;3.88;1.95;;;;;;;41.60;22.13;98400.56;5036685;28;20061;-77
2023/06/28 05:13:13;;;;;;;3.03;1.95;;;;;;;41.89;21.75;98408.00;5053022;28;20032;-76
2023/06/28 05:15:38;;;;;;;8.55;1.70;;;;;;;42.23;21.19;98405.34;5053608;28;20045;-78
2023/06/28 05:18:04;;;;;;;3.63;2.10;;;;;;;42.52;20.80;98400.88;5036347;28;20037;-76
2023/06/28 05:20:31;;;;;;;3.27;1.87;;;;;;;42.88;20.52;98400.22;5051550;28;20508;-76
2023/06/28 05:23:09;;;;;;;;;;;;;;;43.17;20.21;98403.94;5053215;28;20124;-76
2023/06/28 05:25:34;;;;;;;5.70;1.90;;;;;;;43.64;19.88;98406.25;5054479;28;19909;-76
2023/06/28 05:27:59;;;;;;;5.67;2.10;;;;;;;43.95;19.40;98415.03;5052652;28;20040;-78
2023/06/28 05:30:25;;;;;;;4.83;1.70;;;;;;;44.27;19.61;98421.50;5052495;28;20467;-77
2023/06/28 05:32:51;;;;;;;4.40;1.60;;;;;;;44.54;18.69;98414.41;5036510;28;20037;-77
2023/06/28 05:35:16;;;;;;;4.97;1.70;;;;;;;44.89;18.92;98419.28;5053048;28;20106;-76
2023/06/28 05:37:42;;;;;;;8.50;1.80;;;;;;;45.07;18.36;98406.00;5019654;28;20087;-77
2023/06/28 05:40:08;;;;;;;4.77;1.80;;;;;;;45.39;18.07;98418.97;5036006;28;20464;-76
2023/06/28 05:42:34;;;;;;;4.15;1.67;;;;;;;45.55;17.87;98425.28;5052167;28;20037;-76
2023/06/28 05:44:59;;;;;;;3.17;1.67;;;;;;;45.95;17.76;98423.44;5053755;28;20075;-76
2023/06/28 05:47:25;;;;;;;3.53;1.80;;;;;;;46.25;17.66;98412.66;5035635;28;20033;-78
2023/06/28 05:49:50;;;;;;;6.40;1.80;;;;;;;46.26;17.68;98416.19;5052349;28;20033;-76
2023/06/28 05:52:16;;;;;;;4.23;2.03;;;;;;;46.56;17.43;98414.47;5035543;28;20037;-76
2023/06/28 05:54:42;;;;;;;3.65;1.70;;;;;;;46.52;17.48;98410.81;5019221;28;20502;-77
2023/06/28 05:57:07;;;;;;;6.13;1.83;;;;;;;46.71;17.23;98406.44;5019630;28;20060;-77
2023/06/28 05:59:33;;;;;;;6.17;1.90;;;;;;;46.84;16.72;98407.84;5019273;28;20044;-76
2023/06/28 06:01:58;;;;;;;4.87;2.03;;;;;;;46.92;16.95;98408.81;5053333;28;20404;-76
2023/06/28 06:04:24;;;;;;;4.53;1.60;;;;;;;46.94;17.11;98410.03;5051686;28;20032;-77
2023/06/28 06:06:49;;;;;;;5.53;1.80;;;;;;;46.94;16.64;98407.28;5051690;28;20119;-75
2023/06/28 06:09:15;;;;;;;7.87;1.80;;;;;;;46.84;16.71;98410.59;5052229;28;20052;-77
2023/06/28 06:11:40;;;;;;;4.43;1.80;;;;;;;46.49;16.96;98414.28;5034907;28;20037;-77
2023/06/28 06:14:06;;;;;;;6.23;2.03;;;;;;;46.50;16.96;98406.81;5051817;28;20530;-77
2023/06/28 06:16:31;;;;;;;5.90;1.80;;;;;;;46.42;17.26;98416.94;5051922;28;20112;-75
2023/06/28 06:18:57;;;;;;;7.27;1.97;;;;;;;46.47;16.87;98407.56;5053033;28;20496;-76
2023/06/28 06:21:22;;;;;;;6.13;1.80;;;;;;;46.52;17.05;98412.78;5051750;28;20064;-77
2023/06/28 06:23:48;;;;;;;4.07;1.70;;;;;;;46.53;16.53;98414.38;5051663;28;20025;-76
2023/06/28 06:26:13;;;;;;;4.57;1.90;;;;;;;46.50;17.17;98404.06;5051044;28;20041;-75
2023/06/28 06:28:39;;;;;;;4.63;1.50;;;;;;;46.53;16.78;98415.16;5051704;28;20072;-78
2023/06/28 06:31:05;;;;;;;3.40;1.60;;;;;;;46.51;17.21;98405.66;5051696;28;20040;-77
2023/06/28 06:33:31;;;;;;;4.30;1.70;;;;;;;46.56;17.21;98414.47;5051274;28;20527;-77
2023/06/28 06:35:56;;;;;;;1.80;1.50;;;;;;;46.61;16.73;98416.13;5051445;28;20033;-76
2023/06/28 06:38:22;;;;;;;9.40;1.97;;;;;;;46.44;16.91;98409.06;5052824;28;20061;-76
2023/06/28 06:40:49;;;;;;;4.47;1.80;;;;;;;46.56;17.21;98405.38;5052715;28;20047;-75
2023/06/28 06:43:14;;;;;;;2.95;1.60;;;;;;;46.61;17.09;98405.09;5035053;28;20056;-77
2023/06/28 06:45:40;;;;;;;2.90;1.63;;;;;;;46.64;17.25;98400.78;5052704;28;20202;-79
2023/06/28 06:48:05;;;;;;;5.17;1.80;;;;;;;46.65;16.72;98394.09;5018291;28;20451;-77
2023/06/28 06:50:31;;;;;;;7.63;2.10;;;;;;;46.61;16.82;98396.81;5050879;28;20072;-75
2023/06/28 06:52:56;;;;;;;5.60;2.03;;;;;;;46.49;17.12;98397.72;5052090;28;20040;-77
2023/06/28 06:55:23;;;;;;;4.47;1.83;;;;;;;46.41;16.82;98394.03;5034610;28;20032;-75
2023/06/28 06:57:48;;;;;;;;;;;;;;;46.17;17.15;98402.63;5035367;28;20064;-75
2023/06/28 07:00:16;;;;;;;12.00;2.00;;;;;;;46.12;17.21;98394.63;5052545;28;20295;-77
2023/06/28 07:02:41;;;;;;;6.10;2.10;;;;;;;45.98;17.26;98386.84;5051283;28;20503;-78
2023/06/28 07:05:07;;;;;;;4.63;1.87;;;;;;;45.83;17.57;98392.06;5034599;28;20029;-76
2023/06/28 07:07:32;;;;;;;5.83;1.90;;;;;;;45.71;17.22;98389.41;5018612;28;20538;-76
2023/06/28 07:09:58;;;;;;;10.40;2.10;;;;;;;45.59;17.82;98389.53;5018078;28;20041;-76
2023/06/28 07:12:23;;;;;;;3.07;1.73;;;;;;;45.48;18.09;98386.50;5034754;28;20033;-75
2023/06/28 07:14:49;;;;;;;6.67;1.80;;;;;;;45.39;17.90;98391.41;5051044;28;20029;-76
2023/06/28 07:17:14;;;;;;;3.57;1.87;;;;;;;45.33;17.93;98394.44;5052560;28;20468;-76
2023/06/28 07:19:40;;;;;;;4.40;1.70;;;;;;;45.25;18.44;98389.13;5034327;28;20044;-76
2023/06/28 07:22:05;;;;;;;5.73;2.10;;;;;;;45.20;17.95;98381.94;5034833;28;20044;-76
2023/06/28 07:24:31;;;;;;;7.80;1.90;;;;;;;45.14;18.75;98389.66;5053040;28;20041;-76
2023/06/28 07:26:56;;;;;;;5.87;1.73;;;;;;;45.02;18.47;98378.72;5056388;28;20051;-76
2023/06/28 07:29:24;;;;;;;4.80;1.70;;;;;;;44.96;18.97;98389.19;5055117;28;20061;-77
2023/06/28 07:31:49;;;;;;;6.03;2.10;;;;;;;44.89;18.56;98380.72;5038733;28;20029;-76
2023/06/28 07:34:14;;;;;;;5.67;2.00;;;;;;;44.79;18.85;98387.56;5038173;28;20538;-77
2023/06/28 07:36:40;;;;;;;4.43;1.93;;;;;;;44.67;19.33;98389.59;5056167;28;20033;-77
2023/06/28 07:39:06;;;;;;;4.13;2.03;;;;;;;44.57;19.31;98386.19;5056375;28;20024;-77
2023/06/28 07:41:32;;;;;;;4.43;1.90;;;;;;;44.41;19.50;98382.59;5056331;28;20033;-75
2023/06/28 07:43:57;;;;;;;5.13;2.23;;;;;;;44.34;19.25;98390.66;5055986;28;20087;-75
2023/06/28 07:46:23;;;;;;;5.63;2.20;;;;;;;44.16;19.47;98390.91;5056205;28;20032;-77
2023/06/28 07:48:50;;;;;;;5.47;2.07;;;;;;;44.02;19.44;98391.31;5056047;28;20409;-76
2023/06/28 07:51:16;;;;;;;5.18;1.80;;;;;;;43.87;19.58;98378.28;5037957;28;20044;-76
2023/06/28 07:53:42;;;;;;;4.23;2.20;;;;;;;43.75;19.67;98387.34;5054755;28;20033;-76
2023/06/28 07:56:07;;;;;;;4.22;2.20;;;;;;;43.60;19.86;98377.06;5054823;28;20029;-77
2023/06/28 07:58:36;;;;;;;8.17;2.30;;;;;;;43.48;20.08;98380.63;5054608;28;20037;-77
2023/06/28 08:01:02;;;;;;;3.70;2.30;;;;;;;43.34;20.17;98378.19;5037909;28;20037;-75
2023/06/28 08:03:27;;;;;;;10.70;2.50;;;;;;;43.22;20.36;98389.97;5054407;28;20098;-77
2023/06/28 08:05:53;;;;;;;5.87;2.67;;;;;;;42.89;20.33;98371.63;5038224;28;20420;-75
2023/06/28 08:08:18;;;;;;;2.93;2.17;;;;;;;42.53;20.79;98377.81;5055827;28;20037;-75
2023/06/28 08:10:43;;;;;;;6.63;2.57;;;;;;;42.57;20.51;98374.06;5054007;28;20118;-75
2023/06/28 08:13:09;;;;;;;4.90;2.30;;;;;;;42.53;21.22;98378.59;5054270;28;20104;-77
2023/06/28 08:15:36;;;;;;;6.30;2.10;;;;;;;42.51;21.12;98378.16;5054466;28;20032;-76
2023/06/28 08:18:03;;;;;;;4.63;2.30;;;;;;;42.51;21.33;98374.59;5038107;28;20086;-76
2023/06/28 08:20:29;;;;;;;5.07;2.22;;;;;;;42.50;21.62;98365.56;5054440;28;20473;-75
2023/06/28 08:22:55;;;;;;;5.35;2.30;;;;;;;42.51;21.44;98369.91;5054454;28;20032;-76
2023/06/28 08:25:20;;;;;;;4.30;2.30;;;;;;;42.46;21.36;98368.19;5054176;28;20090;-76
2023/06/28 08:27:46;;;;;;;5.83;2.50;;;;;;;42.41;21.78;98364.84;5055494;28;20408;-76
2023/06/28 08:30:12;;;;;;;3.60;2.20;;;;;;;42.36;21.55;98368.59;5037526;28;20193;-77
2023/06/28 08:32:37;;;;;;;5.43;2.17;;;;;;;42.29;22.12;98358.19;5021313;28;20033;-75
2023/06/28 08:35:04;;;;;;;2.13;1.93;;;;;;;42.30;22.07;98361.72;5053765;28;20025;-77
2023/06/28 08:37:34;;;;;;;5.10;2.25;;;;;;;42.24;22.37;98355.66;5037907;28;20140;-78
2023/06/28 08:40:00;;;;;;;3.80;1.95;;;;;;;42.21;22.08;98358.25;5038003;28;20033;-76
2023/06/28 08:42:25;;;;;;;6.47;2.20;;;;;;;42.18;22.21;98354.25;5053847;28;20150;-76
2023/06/28 08:44:51;;;;;;;3.58;2.10;;;;;;;42.02;22.53;98353.22;5053726;28;20119;-76
2023/06/28 08:47:16;;;;;;;3.17;2.13;;;;;;;41.90;22.39;98353.97;5037055;28;20377;-77
2023/06/28 08:49:42;;;;;;;5.88;2.60;;;;;;;41.85;22.59;98345.97;5053605;28;20037;-76
2023/06/28 08:52:07;;;;;;;3.90;2.10;;;;;;;41.81;23.05;98339.53;5036863;28;20470;-76
2023/06/28 08:54:33;;;;;;;3.33;2.10;;;;;;;41.72;22.91;98325.88;5020302;28;20540;-76
2023/06/28 08:56:59;;;;;;;2.80;2.00;;;;;;;41.69;22.96;98330.09;5036776;28;20029;-77
2023/06/28 08:59:24;;;;;;;3.90;2.47;;;;;;;41.52;23.28;98327.47;5020112;28;20032;-77
2023/06/28 09:01:54;;;;;;;4.47;2.10;;;;;;;41.45;23.55;98333.47;5036143;28;20033;-76
2023/06/28 09:04:22;;;;;;;3.00;2.40;;;;;;;41.39;23.21;98334.81;5037239;28;20053;-76
2023/06/28 09:06:48;;;;;;;3.88;2.10;;;;;;;41.27;23.07;98327.25;5036748;28;20459;-75
2023/06/28 09:09:14;;;;;;;6.50;2.08;;;;;;;41.19;23.42;98328.91;5020281;28;20420;-76
2023/06/28 09:11:40;;;;;;;3.53;2.10;;;;;;;41.08;23.31;98327.66;5036432;28;20024;-76
2023/06/28 09:14:05;;;;;;;5.30;2.50;;;;;;;40.92;22.76;98313.75;5036601;28;20028;-77
2023/06/28 09:16:31;;;;;;;5.45;2.50;;;;;;;40.81;22.23;98321.47;5052653;28;20044;-77
2023/06/28 09:18:56;;;;;;;3.15;2.10;;;;;;;40.69;22.97;98318.63;5054009;28;20055;-76
2023/06/28 09:21:25;;;;;;;4.85;2.53;;;;;;;40.53;23.17;98312.88;5036239;28;20025;-75
2023/06/28 09:23:51;;;;;;;3.22;2.30;;;;;;;40.36;23.43;98312.88;5036384;28;20029;-77
2023/06/28 09:26:16;;;;;;;7.97;2.42;;;;;;;40.25;23.17;98321.44;5053207;28;20040;-77
2023/06/28 09:28:42;;;;;;;5.75;2.33;;;;;;;40.15;23.32;98316.28;5052475;28;20060;-77
2023/06/28 09:31:08;;;;;;;5.47;2.33;;;;;;;40.03;23.54;98322.44;5054638;28;20033;-76
2023/06/28 09:33:33;;;;;;;3.13;2.20;;;;;;;39.88;23.65;98317.41;5054346;28;20033;-76
2023/06/28 09:36:00;;;;;;;5.68;2.20;;;;;;;39.77;23.92;98316.91;5036277;28;20036;-78
2023/06/28 09:38:26;;;;;;;3.90;2.22;;;;;;;39.68;23.75;98316.94;5052713;28;20476;-77
2023/06/28 09:40:59;;;;;;;3.45;2.15;;;;;;;39.61;24.36;98311.13;5052550;28;20052;-76
2023/06/28 09:43:28;;;;;;;3.60;2.28;;;;;;;39.57;24.68;98302.78;5019798;28;20032;-76
2023/06/28 09:45:54;;;;;;;4.78;2.20;;;;;;;39.45;24.31;98305.28;5051192;28;20045;-76
2023/06/28 09:48:26;;;;;;;5.00;2.40;;;;;;;39.36;24.59;98301.72;5052195;28;20550;-77
2023/06/28 09:50:51;;;;;;;5.20;2.10;;;;;;;39.27;24.65;98290.81;5020429;28;20041;-79
2023/06/28 09:53:19;;;;;;;6.55;2.35;;;;;;;39.26;24.09;98290.00;5019277;28;20523;-77
2023/06/28 09:55:45;;;;;;;3.13;2.20;;;;;;;39.16;24.58;98294.97;5036092;28;20514;-76
2023/06/28 09:58:15;;;;;;;3.92;2.15;;;;;;;39.07;24.58;98292.16;5019305;28;20496;-75
2023/06/28 10:00:42;;;;;;;3.75;2.17;;;;;;;38.97;24.74;98287.00;5035732;28;20163;-76
2023/06/28 10:03:09;;;;;;;3.67;2.05;;;;;;;38.81;24.82;98284.69;5035678;28;20039;-77
2023/06/28 10:05:35;;;;;;;3.65;2.20;;;;;;;38.67;24.99;98286.72;5035739;28;20036;-77
2023/06/28 10:08:16;;;;;;;4.25;2.22;;;;;;;38.54;24.97;98286.47;5051959;28;20040;-76
2023/06/28 10:10:43;;;;;;;4.82;2.20;;;;;;;38.36;24.80;98280.09;5020477;28;20106;-75
2023/06/28 10:13:11;;;;;;;3.67;2.33;;;;;;;38.23;25.32;98275.53;5051659;28;20454;-76
2023/06/28 10:15:41;;;;;;;4.38;2.20;;;;;;;38.16;25.59;98269.72;5035458;28;20078;-77
2023/06/28 10:18:07;;;;;;;3.65;2.28;;;;;;;38.11;25.53;98272.53;5035805;28;20041;-75
2023/06/28 10:20:32;;;;;;;3.17;2.15;;;;;;;38.03;25.49;98267.84;5035120;28;20496;-76
2023/06/28 10:22:58;;;;;;;4.45;2.30;;;;;;;37.94;25.23;98267.75;5018685;28;20504;-77
2023/06/28 10:25:25;;;;;;;4.25;2.30;;;;;;;37.91;24.69;98265.69;5018364;28;20428;-76
2023/06/28 10:27:51;;;;;;;3.95;2.30;;;;;;;37.88;25.07;98260.84;5034889;28;20048;-76
2023/06/28 10:30:17;;;;;;;3.63;2.25;;;;;;;37.77;24.85;98265.72;5034846;28;20041;-75
2023/06/28 10:32:43;;;;;;;3.08;2.13;;;;;;;37.71;25.03;98270.47;5050833;28;20462;-76
2023/06/28 10:35:10;;;;;;;9.20;2.67;;;;;;;37.68;25.27;98273.00;5051307;28;20397;-76
2023/06/28 10:37:35;;;;;;;3.63;2.40;;;;;;;37.67;25.58;98264.03;5051671;28;20032;-76
2023/06/28 10:40:01;;;;;;;4.18;2.38;;;;;;;37.58;25.11;98246.81;5050951;28;20048;-76
2023/06/28 10:42:39;;;;;;;5.00;2.30;;;;;;;37.61;24.88;98249.72;5034795;28;20029;-76
2023/06/28 10:45:05;;;;;;;4.03;2.20;;;;;;;37.51;25.40;98243.69;5035295;28;20041;-75
2023/06/28 10:47:32;;;;;;;3.75;2.22;;;;;;;37.42;25.48;98252.59;5051499;28;20032;-76
2023/06/28 10:50:09;;;;;;;2.97;2.22;;;;;;;37.25;26.04;98253.22;5018407;28;20155;-77
2023/06/28 10:52:45;;;;;;;5.63;2.47;;;;;;;37.16;26.47;98265.88;5050991;28;20036;-76
2023/06/28 10:55:11;;;;;;;2.67;2.20;;;;;;;37.12;26.36;98283.94;5019576;28;20403;-77
2023/06/28 10:57:40;;;;;;;3.33;2.20;;;;;;;37.08;26.55;98282.94;5034363;28;20098;-76
2023/06/28 11:00:32;;;;;;;5.25;2.20;;;;;;;36.98;26.71;98283.94;5034992;28;20064;-78
2023/06/28 11:03:03;;;;;;;3.55;2.65;;;;;;;36.85;26.82;98291.00;5048483;28;20037;-77
2023/06/28 11:05:38;;;;;;;6.40;2.50;;;;;;;36.73;27.06;98291.47;5052038;28;20044;-76
2023/06/28 11:08:07;;;;;;;3.72;2.53;;;;;;;36.66;27.62;98284.78;5034354;28;20043;-77
2023/06/28 11:10:36;;;;;;;4.00;2.35;;;;;;;36.54;27.69;98268.97;5050406;28;20075;-77
2023/06/28 11:13:03;;;;;;;5.72;2.65;;;;;;;36.53;27.61;98267.34;5050836;28;20029;-76
2023/06/28 11:15:29;;;;;;;4.93;2.60;;;;;;;36.33;28.02;98260.38;5034148;28;20036;-76
2023/06/28 11:17:54;;;;;;;3.53;2.30;;;;;;;36.33;28.25;98258.47;5034336;28;20083;-76
2023/06/28 11:20:20;;;;;;;6.93;2.40;;;;;;;36.28;28.22;98252.28;5034385;28;20041;-78
2023/06/28 11:22:53;;;;;;;4.25;2.60;;;;;;;36.20;28.58;98268.16;5017808;28;20037;-78
2023/06/28 11:25:27;;;;;;;4.32;2.53;;;;;;;36.15;28.82;98249.22;5017773;28;20119;-78
2023/06/28 11:27:53;;;;;;;4.00;2.20;;;;;;;36.12;28.88;98255.25;5034412;28;20033;-77
2023/06/28 11:30:18;;;;;;;5.95;2.50;;;;;;;36.03;29.19;98246.16;5033887;28;20512;-76